x

Santa Monica Basin - 33nm Wsw Of Santa Monica, Ca (46025) Wave Buoy

4:50am - Mon 21st Jan 2019 All times are PST. -8 hours from GMT.

  • Sig Wave height 7.9ft
  • Swell Direction
  • Peak Period 7s
  • Average Period 6s
  • Wind
    34mph, 47mph gusts
  • Sea Temp 60°f
  • Air Temp 57°f
  • Sea Pressure 1017.3mb
  • Santa Monica Basin - 33nm Wsw Of Santa Monica, Ca
  • Santa Monica Basin - 33nm Wsw Of Santa Monica, Ca

More Historic Weather Station data

Upgrade to MSW Pro to gain access to the past 30 days of data for over 8000 Wavebouys and Weather Stations around the globe.

Join

Comparision Forecast

View Surf forecast
   
Mon 01/21 4:50am 8ft 7s 6s 34 47 mph 1017.3mb 60f 57f
4:40am  -   -   -  34 43 mph 1017.1mb 60f 57f
4:30am  -   -   -  34 47 mph 1017.1mb 60f 57f
4:20am  -   -   -  34 47 mph 1017mb - 57f
4:10am  -   -   -  34 45 mph 1016.8mb 60f 57f
4:00am  -   -   -  31 43 mph 1017mb 60f 57f
3:50am 7.5ft 6s 5s 31 40 mph 1017.2mb 60f 57f
3:40am  -   -   -  31 43 mph 1017.1mb 60f 57f
3:30am  -   -   -  34 45 mph 1016.8mb 61f 57f
3:20am  -   -   -  31 40 mph 1017.1mb 61f 57f
3:10am  -   -   -  31 43 mph 1017.3mb 60f 57f
3:00am  -   -   -  31 45 mph 1017.3mb - 57f
2:50am 7ft 6s 5s 31 40 mph 1017.3mb 60f 58f
2:40am  -   -   -  29 40 mph 1017.3mb 61f 58f
2:30am  -   -   -  29 40 mph 1017.4mb 61f 58f
2:20am  -   -   -  27 36 mph 1017.3mb 60f 58f
2:10am  -   -   -  27 36 mph 1017.3mb 61f 58f
2:00am  -   -   -  25 34 mph 1017.4mb 61f 59f
1:50am 6ft 11s 5s 25 36 mph 1017.2mb 61f 58f
1:40am  -   -   -  25 31 mph 1017.5mb 61f 58f
1:30am  -   -   -  29 38 mph 1017.4mb 61f 58f
1:20am  -   -   -  31 40 mph 1017.2mb 61f 58f
1:10am  -   -   -  27 36 mph 1017.4mb 61f 59f
1:00am  -   -   -  27 34 mph 1017.3mb 61f 59f
12:50am 6ft 6s 5s 27 34 mph 1017.3mb 61f 58f
12:40am 6ft  -  5s 27 34 mph 1017.1mb 61f 59f
12:30am  -   -   -  25 31 mph 1017mb 61f 59f
12:20am  -   -   -  25 34 mph 1017mb 61f 59f
12:10am  -   -   -  25 34 mph 1017mb 61f 59f
12:00am  -   -   -  25 34 mph 1017mb 61f 59f
Sun 01/20 11:50pm 5.5ft 6s 5s 25 34 mph 1016.9mb 61f 59f
11:40pm  -   -   -  25 34 mph 1016.7mb - 59f
11:30pm  -   -   -  25 34 mph 1016.7mb 61f 59f
11:20pm  -   -   -  22 31 mph 1016.8mb 61f 59f
11:10pm  -   -   -  22 27 mph 1016.6mb 61f 60f
11:00pm  -   -   -  22 29 mph 1016.8mb 61f 60f
10:50pm 6ft 7s 5s 20 27 mph 1016.7mb 61f 60f
10:40pm  -   -   -  20 25 mph 1016.6mb - 60f
10:30pm  -   -   -  20 27 mph 1016.6mb 61f 60f
10:20pm  -   -   -  20 25 mph 1016.7mb 61f 60f
10:10pm  -   -   -  20 27 mph 1016.6mb 61f 60f
10:00pm  -   -   -  22 29 mph 1016.6mb - 59f
9:50pm 6.5ft 6s 5s 25 34 mph 1016.4mb 61f 59f
9:40pm 6.5ft  -  5s 27 36 mph 1016.1mb 61f 60f
9:30pm  -   -   -  27 36 mph 1015.9mb 61f 60f
9:20pm  -   -   -  27 34 mph 1015.9mb 61f 60f
9:10pm  -   -   -  27 36 mph 1015.8mb 61f 60f
9:00pm  -   -   -  27 34 mph 1015.9mb 61f 60f
8:50pm 6ft 6s 5s 27 34 mph 1015.8mb 61f 60f
8:40pm  -   -   -  25 34 mph 1015.7mb 61f 60f
8:30pm  -   -   -  27 34 mph 1015.6mb 61f 60f
8:20pm  -   -   -  25 31 mph 1015.5mb 61f 59f
8:10pm  -   -   -  25 31 mph 1015.4mb 61f 59f
8:00pm  -   -   -  27 36 mph 1015.6mb 61f 59f
7:50pm 6.5ft 6s 5s 25 34 mph 1015.6mb 61f 59f
7:40pm 6.5ft  -  5s 27 36 mph 1015.6mb 61f 58f
7:30pm  -   -   -  27 38 mph 1015.4mb - 58f
7:20pm  -   -   -  29 38 mph 1015.3mb 61f 59f
7:10pm  -   -   -  29 38 mph 1015.4mb 61f 59f
7:00pm  -   -   -  25 36 mph 1015.5mb 61f 60f
6:50pm 6ft 6s 6s 25 31 mph 1015.5mb 61f 60f
6:40pm  -   -   -  22 31 mph 1015.8mb 61f 60f
6:30pm  -   -   -  20 29 mph 1015.8mb 61f 60f
6:20pm  -   -   -  20 25 mph 1015.9mb 61f 60f
6:10pm  -   -   -  22 29 mph 1015.7mb 61f 60f
6:00pm  -   -   -  22 29 mph 1015.6mb 61f 60f
5:50pm 6ft 5s 6s 22 29 mph 1015.5mb 61f 60f
5:40pm  -   -   -  22 29 mph 1015.5mb 61f 60f
5:30pm  -   -   -  20 27 mph 1015.5mb 61f 60f
5:20pm  -   -   -  22 27 mph 1015.7mb 61f 60f
5:10pm  -   -   -  20 27 mph 1015.8mb 61f 60f
5:00pm  -   -   -  22 27 mph 1015.8mb 61f 60f
4:50pm 6ft 12s 6s 20 29 mph 1015.7mb 61f 60f
4:40pm 6ft  -  6s 20 27 mph 1015.9mb 61f 60f
4:30pm  -   -   -  22 27 mph 1015.9mb - 60f
4:20pm  -   -   -  20 27 mph 1016mb 61f 60f
4:10pm  -   -   -  22 29 mph 1016mb 61f 60f
4:00pm  -   -   -  20 27 mph 1016mb 61f 61f
3:50pm 5ft 13s 6s 18 25 mph 1016.1mb 61f 61f
3:40pm  -   -   -  18 22 mph 1016mb 61f 61f
3:30pm  -   -   -  18 22 mph 1015.9mb 61f 61f
3:20pm  -   -   -  18 22 mph 1016mb 61f 61f
3:10pm  -   -   -  18 22 mph 1016.2mb 61f 61f
3:00pm  -   -   -  16 20 mph 1016.2mb 61f 61f
2:50pm 4.5ft 11s 6s 13 18 mph 1016mb 61f 61f
2:40pm  -   -   -  13 18 mph 1016.1mb 61f 61f
2:30pm  -   -   -  13 18 mph 1016.2mb - 62f
2:20pm  -   -   -  13 20 mph 1016.4mb 61f 62f
2:10pm  -   -   -  13 18 mph 1016.3mb 61f 63f
2:00pm  -   -   -  13 18 mph 1016.7mb 61f 63f
1:50pm 4ft  -  7s 7 11 mph 1016.8mb 61f 63f
1:40pm 4ft 14s 7s  -  mph - - -
1:30pm  -   -   -  4 7 mph 1017.3mb 61f 62f
1:20pm  -   -   -  7 11 mph 1017.6mb 61f 62f
1:10pm  -   -   -  9 11 mph 1017.8mb 61f 62f
1:00pm  -   -   -  7 11 mph 1017.8mb 61f 61f
12:50pm 4.5ft 13s 8s 9 11 mph 1018mb 61f 61f
12:40pm  -   -   -  13 18 mph 1018.2mb 61f 61f
12:30pm  -   -   -  9 16 mph 1018.3mb 61f 61f
12:20pm  -   -   -  7 11 mph 1017.7mb 61f 62f
12:10pm  -   -   -  7 9 mph 1018.1mb 61f 62f
12:00pm  -   -   -  4 7 mph 1018mb - 61f
11:50am 4.5ft 13s 8s 7 9 mph 1018.2mb 61f 61f
11:40am  -   -   -  9 11 mph 1018.4mb 61f 61f
11:30am  -   -   -  11 16 mph 1018.7mb 61f 61f
11:20am  -   -   -  11 16 mph 1019.1mb 61f 61f
11:10am  -   -   -  9 13 mph 1018.9mb 61f 61f
11:00am  -   -   -  7 11 mph 1019.2mb 61f 61f
10:50am 4.5ft 13s 9s 7 9 mph 1019.2mb - 61f
10:40am  -   -   -  7 11 mph 1019.3mb - 61f
10:30am  -   -   -  7 9 mph 1019.3mb 61f 61f
10:20am  -   -   -  4 7 mph 1019.1mb 61f 61f
10:10am  -   -   -  7 9 mph 1019.2mb 61f 61f
10:00am  -   -   -  7 11 mph 1019.3mb - 61f
9:50am 4ft 11s 9s 9 13 mph 1019.4mb 61f 61f
9:40am  -   -   -  11 13 mph 1019.4mb 61f 61f
9:30am  -   -   -  9 11 mph 1019.3mb 61f 61f
9:20am  -   -   -  7 11 mph 1019.3mb 61f 61f
9:10am  -   -   -  4 7 mph 1019.3mb 61f 61f
9:00am  -   -   -  4 7 mph 1019.1mb 61f 61f
8:50am 4.5ft 14s 8s 7 9 mph 1019.1mb 61f 61f
8:40am  -   -   -  4 7 mph 1019.1mb 61f 61f
8:30am  -   -   -  4 7 mph 1019.1mb 61f 61f
8:20am  -   -   -  4 7 mph 1019.2mb 61f 61f
8:10am  -   -   -  7 9 mph 1019.4mb 61f 60f
8:00am  -   -   -  9 11 mph 1019.2mb 61f 61f
7:50am 3.5ft 14s 8s 9 11 mph 1019.2mb 61f 61f
7:40am  -   -   -  9 11 mph 1019.2mb 61f 61f
7:30am  -   -   -  11 16 mph 1019.2mb - 60f
7:20am  -   -   -  13 18 mph 1019.2mb 61f 60f
7:10am  -   -   -  11 18 mph 1019.1mb 61f 61f
7:00am  -   -   -  4 9 mph 1018.6mb 61f 60f
6:50am 4.5ft 13s 9s 4 9 mph 1018.6mb 61f 61f
6:40am 4.5ft  -  9s 7 9 mph 1018.6mb 61f 61f
6:30am  -   -   -  7 11 mph 1018.4mb 61f 61f
6:20am  -   -   -  9 11 mph 1018.3mb 61f 61f
6:10am  -   -   -  9 11 mph 1018.3mb 61f 61f
6:00am  -   -   -  7 9 mph 1018.3mb 61f 61f
5:50am 4.5ft 13s 9s 7 11 mph 1018.4mb 61f 61f
5:40am  -   -   -  9 11 mph 1018.4mb 61f 61f
5:30am  -   -   -  11 13 mph 1018.5mb 61f 61f
5:20am  -   -   -  11 13 mph 1018.5mb 61f 61f
5:10am  -   -   -  9 13 mph 1018.5mb - 61f
5:00am  -   -   -  7 11 mph 1018.5mb 61f 61f
4:50am 4.5ft 13s 9s 4 7 mph 1018.4mb 61f 61f
4:40am 4.5ft  -  9s 4 7 mph 1018.4mb 61f 61f
4:30am  -   -   -  4 9 mph 1018.5mb 61f 61f
4:20am  -   -   -  4 7 mph 1018.6mb 61f 61f
4:10am  -   -   -  2 4 mph 1018.6mb 61f 62f
4:00am  -   -   -  2 4 mph 1018.6mb - 62f
3:50am 4.5ft 12s 9s 2 4 mph 1018.6mb 61f 62f
3:40am 4.5ft  -  9s 2 4 mph 1018.6mb 61f 62f
3:30am  -   -   -  2 4 mph 1018.5mb 61f 62f
3:20am  -   -   -  2 4 mph 1018.5mb 61f 62f
3:10am  -   -   -  2 4 mph 1018.7mb 61f 62f
3:00am  -   -   -  2 4 mph 1018.7mb 61f 62f
2:50am 3.5ft 15s 8s 2 4 mph 1018.8mb 61f 62f
2:40am  -   -   -  2 4 mph 1018.8mb 61f 62f
2:30am  -   -   -  4 7 mph 1019mb 61f 62f
2:20am  -   -   -  4 7 mph 1019.1mb 61f 62f
2:10am  -   -   -  4 7 mph 1019.3mb 61f 62f
2:00am  -   -   -  4 7 mph 1019.6mb 61f 62f
1:50am 4.5ft 13s 9s 2 4 mph 1019.6mb 61f 62f
1:40am  -   -   -  4 4 mph 1019.6mb 61f 62f
1:30am  -   -   -  4 4 mph 1019.7mb 61f 62f
1:20am  -   -   -  4 7 mph 1019.8mb 61f 61f
1:10am  -   -   -  4 7 mph 1019.8mb 61f 61f
1:00am  -   -   -  4 7 mph 1019.7mb 61f 61f
12:50am 4ft 12s 8s 4 7 mph 1019.8mb 61f 61f
12:40am  -   -   -  4 7 mph 1019.9mb 61f 62f
12:30am  -   -   -  4 7 mph 1020.1mb 61f 62f
12:20am  -   -   -  4 7 mph 1020.2mb 61f 62f
12:10am  -   -   -  4 7 mph 1020.3mb 61f 62f
12:00am  -   -   -  7 9 mph 1020.3mb 61f 62f
Sat 01/19 11:50pm 4.5ft 13s 8s 7 9 mph 1020.3mb 61f 62f
11:40pm  -   -   -  7 9 mph 1020.4mb 61f 62f
11:30pm  -   -   -  7 9 mph 1020.4mb 61f 62f
11:20pm  -   -   -  9 9 mph 1020.5mb 61f 62f
11:10pm  -   -   -  9 11 mph 1020.6mb 61f 62f
11:00pm  -   -   -  7 9 mph 1020.7mb - 62f
10:50pm 4ft 14s 8s 4 7 mph 1020.7mb - 62f
10:40pm  -   -   -  4 7 mph 1020.6mb 61f 62f
10:30pm  -   -   -  7 9 mph 1020.6mb 61f 62f
10:20pm  -   -   -  7 9 mph 1020.6mb 61f 62f
10:10pm  -   -   -  7 9 mph 1020.5mb 61f 62f
10:00pm  -   -   -  7 9 mph 1020.5mb - 62f
9:50pm 4ft 13s 8s 7 9 mph 1020.5mb 61f 61f
9:40pm 4ft  -  8s 9 11 mph 1020.5mb 61f 61f
9:30pm  -   -   -  9 11 mph 1020.5mb 61f 61f
9:20pm  -   -   -  9 11 mph 1020.5mb 61f 61f
9:10pm  -   -   -  9 11 mph 1020.5mb 61f 61f
9:00pm  -   -   -  9 11 mph 1020.6mb 61f 61f
8:50pm 4ft 12s 8s 9 11 mph 1020.6mb 61f 61f
8:40pm 4ft  -  8s 9 11 mph 1020.6mb 61f 62f
8:30pm  -   -   -  9 11 mph 1020.6mb 61f 62f
8:20pm  -   -   -  9 11 mph 1020.5mb 61f 62f
8:10pm  -   -   -  9 11 mph 1020.6mb 61f 62f
8:00pm  -   -   -  9 11 mph 1020.5mb 61f 62f
7:50pm 4ft 11s 8s 9 13 mph 1020.6mb 61f 62f
7:40pm  -   -   -  9 11 mph 1020.6mb 61f 62f
7:30pm  -   -   -  9 11 mph 1020.5mb 61f 62f
7:20pm  -   -   -  9 11 mph 1020.4mb 61f 62f
7:10pm  -   -   -  9 11 mph 1020.4mb 61f 62f
7:00pm  -   -   -  9 11 mph 1020.3mb 61f 62f
6:50pm 5ft 13s 8s 9 11 mph 1020.3mb - 62f
6:40pm  -   -   -  9 11 mph 1020.3mb 61f 62f
6:30pm  -   -   -  9 11 mph 1020.2mb 61f 62f
6:20pm  -   -   -  9 11 mph 1020.2mb 61f 62f
6:10pm  -   -   -  9 11 mph 1020.3mb 61f 62f
6:00pm  -   -   -  9 11 mph 1020.2mb 61f 62f
5:50pm 4.5ft 13s 8s 9 11 mph 1020.2mb 61f 62f
5:40pm  -   -   -  7 11 mph 1020.1mb 61f 62f
5:30pm  -   -   -  7 11 mph 1020.1mb 61f 62f
5:20pm  -   -   -  7 9 mph 1020.1mb 61f 62f
5:10pm  -   -   -  7 11 mph 1020.2mb - 62f
5:00pm  -   -   -  7 11 mph 1020.2mb 61f 62f
4:50pm 5ft 13s 8s 7 9 mph 1020.4mb 61f 62f
4:40pm  -   -   -  7 9 mph 1020.5mb 61f 62f
4:30pm  -   -   -  7 11 mph 1020.6mb 61f 63f
4:20pm  -   -   -  9 9 mph 1020.8mb 61f 63f
4:10pm  -   -   -  7 9 mph 1021mb 62f 63f
4:00pm  -   -   -  7 11 mph 1021mb 62f 63f
3:50pm 6ft 13s 9s 7 9 mph 1021mb 62f 63f
3:40pm  -   -   -  7 9 mph 1021mb 62f 63f
3:20pm  -   -   -  7 9 mph 1021.2mb 62f 63f
3:10pm  -   -   -  7 9 mph 1021.4mb 62f 63f
3:00pm  -   -   -  7 9 mph 1021.4mb - 63f
2:50pm 5.5ft 14s 9s 7 7 mph 1021.6mb 62f 63f
2:40pm 5.5ft  -  9s 7 7 mph 1021.7mb 62f 63f
2:30pm  -   -   -  7 9 mph 1021.9mb - 62f
2:20pm  -   -   -  7 9 mph 1022.1mb 62f 62f
2:10pm  -   -   -  7 9 mph 1022.1mb 62f 62f
2:00pm  -   -   -  7 9 mph 1022.2mb 62f 62f
1:50pm 6ft 14s 9s 7 9 mph 1022.2mb 61f 63f
1:40pm  -   -   -  7 9 mph 1022.2mb 61f 63f
1:30pm  -   -   -  4 7 mph 1022.3mb - 63f
1:20pm  -   -   -  4 7 mph 1022.6mb 61f 63f
1:10pm  -   -   -  4 9 mph 1023mb 61f 63f
1:00pm  -   -   -  7 9 mph 1023.1mb 61f 63f
12:50pm 5.5ft 15s 8s 4 7 mph 1023.3mb 61f 63f
12:40pm 5.5ft  -  8s 4 7 mph 1023.5mb 61f 63f
12:30pm  -   -   -  4 7 mph 1023.8mb 61f 63f
12:20pm  -   -   -  4 7 mph 1023.9mb 61f 63f
12:10pm  -   -   -  4 7 mph 1024.1mb 61f 63f
12:00pm  -   -   -  4 7 mph 1024.2mb 61f 63f
11:50am 5.5ft 14s 9s 2 4 mph 1024.3mb 61f 63f
11:40am  -   -   -  4 7 mph 1024.6mb - 63f
11:30am  -   -   -  2 4 mph 1024.8mb 61f 63f
11:20am  -   -   -  2 7 mph 1024.9mb 61f 63f
11:10am  -   -   -  2 4 mph 1025.2mb 61f 63f
11:00am  -   -   -  2 7 mph 1025.2mb 61f 63f
10:50am 6ft 14s 9s 2 4 mph 1025.2mb 61f 63f
10:40am  -   -   -  2 4 mph 1025.5mb 61f 63f
10:30am  -   -   -  2 4 mph 1025.3mb 60f 62f
10:20am  -   -   -  2 4 mph 1025.2mb 61f 62f
10:10am  -   -   -  2 4 mph 1025.2mb 60f 62f
10:00am  -   -   -  2 4 mph 1025mb 60f 62f
9:50am 6ft 14s 9s 2 7 mph 1025.1mb 60f 62f
9:40am  -   -   -  2 7 mph 1025.1mb 60f 62f
9:30am  -   -   -  4 7 mph 1024.8mb 60f 62f
9:20am  -   -   -  4 7 mph 1024.7mb 60f 62f
9:10am  -   -   -  2 4 mph 1024.7mb 60f 63f
9:00am  -   -   -  2 4 mph 1024.8mb 60f 62f
8:50am 5.5ft 13s 9s 2 4 mph 1024.7mb 60f 62f
8:40am  -   -   -  4 4 mph 1024.6mb 60f 62f
8:30am  -   -   -  4 7 mph 1024.4mb 60f 62f
8:20am  -   -   -  2 4 mph 1024.3mb 60f 63f
8:10am  -   -   -  2 4 mph 1024.2mb 60f 62f
8:00am  -   -   -  2 2 mph 1024.2mb 60f 62f
7:50am 5ft 15s 8s 2 4 mph 1024.2mb 60f 61f
7:40am 5ft  -  8s 2 4 mph 1024.2mb 60f 61f
7:30am  -   -   -  2 4 mph 1024.2mb 60f 60f
7:20am  -   -   -  2 7 mph 1024.1mb 60f 60f
7:10am  -   -   -  2 2 mph 1024mb 60f 60f
7:00am  -   -   -  2 4 mph 1023.8mb 60f 60f
6:50am 5.5ft 14s 9s 2 4 mph 1023.4mb - 60f
6:40am  -   -   -  2 9 mph 1023.5mb 60f 60f
6:30am  -   -   -  2 7 mph 1023.2mb 60f 60f
6:20am  -   -   -  2 4 mph 1023.1mb 60f 60f
6:10am  -   -   -  2 7 mph 1023mb 60f 60f
6:00am  -   -   -  2 4 mph 1023.2mb 60f 60f
5:50am 5.5ft 14s 8s 2 7 mph 1023mb 60f 60f
5:40am  -   -   -  2 4 mph 1022.9mb 60f 60f
5:30am  -   -   -  2 7 mph 1022.7mb 60f 61f
5:20am  -   -   -  2 4 mph 1022.7mb 60f 61f
5:10am  -   -   -  2 7 mph 1022.7mb 60f 61f
5:00am  -   -   -  4 7 mph 1022.8mb - 61f
4:50am 6ft 12s 9s 4 7 mph 1022.9mb 60f 61f
4:40am 6ft  -  9s 4 7 mph 1022.9mb 60f 61f
4:30am  -   -   -  2 7 mph 1023.1mb 60f 60f
4:20am  -   -   -  2 4 mph 1022.9mb 60f 60f
4:10am  -   -   -  2 4 mph 1022.9mb 61f 61f
4:00am  -   -   -  2 4 mph 1023.1mb 61f 61f
3:50am 6ft 11s 8s 4 7 mph 1023.1mb 61f 60f
3:40am  -   -   -  4 7 mph 1023.2mb 61f 60f
3:30am  -   -   -  2 7 mph 1023.4mb 61f 60f
3:20am  -   -   -  4 9 mph 1023.5mb 61f 61f
3:10am  -   -   -  4 9 mph 1023.5mb 61f 60f
3:00am  -   -   -  9 11 mph 1023.5mb 61f 60f
2:50am 6ft 14s 9s 9 13 mph 1023.5mb 61f 60f
2:40am 6ft  -  9s 11 13 mph 1023.6mb 61f 60f
2:30am  -   -   -  9 13 mph 1023.8mb - 60f
2:20am  -   -   -  9 11 mph 1023.8mb 61f 60f
2:10am  -   -   -  9 13 mph 1023.8mb 61f 60f
2:00am  -   -   -  11 13 mph 1023.8mb 61f 60f
1:50am 6.5ft 13s 9s 11 16 mph 1023.8mb 61f 60f
1:40am  -   -   -  13 16 mph 1023.8mb 61f 60f
1:30am  -   -   -  13 16 mph 1023.9mb 61f 60f
1:20am  -   -   -  11 16 mph 1024mb 61f 60f
1:10am  -   -   -  11 16 mph 1024.1mb - 60f
1:00am  -   -   -  9 13 mph 1024.1mb 61f 60f
12:50am 7ft 14s 9s 11 13 mph 1024.3mb 61f 60f
12:40am 7ft  -  9s 11 13 mph 1024.4mb - 60f
12:30am  -   -   -  11 13 mph 1024.5mb 61f 60f
12:20am  -   -   -  11 13 mph 1024.7mb 61f 60f
12:10am  -   -   -  9 13 mph 1024.7mb 61f 60f
12:00am  -   -   -  9 13 mph 1024.6mb - 60f
Fri 01/18 11:50pm 7ft 14s 10s 9 13 mph 1024.8mb 61f 60f
11:40pm  -   -   -  9 13 mph 1024.8mb - 60f
11:30pm  -   -   -  9 13 mph 1024.7mb 61f 60f
11:20pm  -   -   -  9 13 mph 1024.8mb 61f 60f
11:10pm  -   -   -  9 11 mph 1024.9mb 61f 60f
11:00pm  -   -   -  7 11 mph 1024.9mb 61f 60f
10:50pm 7ft 14s 9s 9 11 mph 1024.9mb - 60f
10:40pm 7ft  -  9s 7 11 mph 1024.8mb 61f 60f
10:30pm  -   -   -  7 9 mph 1024.8mb 61f 60f
10:20pm  -   -   -  7 9 mph 1024.8mb 61f 60f
10:10pm  -   -   -  7 11 mph 1024.9mb 61f 60f
10:00pm  -   -   -  7 9 mph 1024.9mb - 60f
9:50pm 7ft 14s 10s 4 9 mph 1024.9mb 61f 60f
9:40pm  -   -   -  7 9 mph 1024.9mb 61f 60f
9:30pm  -   -   -  7 11 mph 1024.8mb 61f 59f
9:20pm  -   -   -  7 9 mph 1024.6mb 61f 59f
9:10pm  -   -   -  7 9 mph 1024.6mb 61f 59f
9:00pm  -   -   -  7 11 mph 1024.5mb 61f 60f
8:50pm 6.5ft 16s 9s 7 9 mph 1024.5mb 61f 60f
8:40pm  -   -   -  7 9 mph 1024.6mb 61f 60f
8:30pm  -   -   -  9 11 mph 1024.7mb - 60f
8:20pm  -   -   -  7 9 mph 1024.8mb 61f 60f
8:10pm  -   -   -  7 9 mph 1024.8mb 61f 60f
8:00pm  -   -   -  7 11 mph 1024.9mb 61f 60f
7:50pm 7ft 15s 9s 9 11 mph 1024.9mb 61f 60f
7:40pm  -   -   -  7 9 mph 1024.9mb 61f 60f
7:30pm  -   -   -  7 9 mph 1024.8mb 61f 60f
7:20pm  -   -   -  4 7 mph 1024.8mb 61f 60f
7:10pm  -   -   -  4 7 mph 1024.8mb 61f 60f
7:00pm  -   -   -  4 7 mph 1024.7mb 61f 60f
6:50pm 7ft 16s 9s 4 4 mph 1024.6mb 61f 60f
6:40pm  -   -   -  2 4 mph 1024.4mb 61f 60f
6:30pm  -   -   -  2 4 mph 1024.2mb 61f 60f
6:20pm  -   -   -  2 7 mph 1024.1mb 61f 60f
6:10pm  -   -   -  2 4 mph 1024.2mb 61f 60f
6:00pm  -   -   -  2 4 mph 1024.1mb 61f 60f
5:50pm 7.5ft 15s 9s 4 7 mph 1024mb 61f 60f
5:40pm  -   -   -  2 4 mph 1023.8mb 61f 60f
5:30pm  -   -   -  2 4 mph 1023.6mb 61f 60f
5:20pm  -   -   -  2 7 mph 1023.5mb 61f 60f
5:10pm  -   -   -  2 4 mph 1023.5mb - 60f
5:00pm  -   -   -  2 7 mph 1023.4mb - 60f
4:50pm 8.5ft 15s 10s 2 7 mph 1023.4mb 61f 60f
4:40pm  -   -   -  4 9 mph 1023.4mb 61f 61f
4:30pm  -   -   -  4 7 mph 1023.3mb 61f 60f
4:20pm  -   -   -  4 9 mph 1023.4mb 61f 61f
4:10pm  -   -   -  4 7 mph 1023.5mb 61f 61f
4:00pm  -   -   -  4 9 mph 1023.3mb - 60f
3:50pm 8.5ft 15s 10s 4 9 mph 1023.5mb 61f 61f
3:40pm  -   -   -  7 11 mph 1023.6mb 61f 60f
3:20pm  -   -   -  4 11 mph 1023.4mb 61f 61f
3:10pm  -   -   -  4 9 mph 1023.3mb 61f 61f
3:00pm  -   -   -  4 9 mph 1023.4mb 61f 61f
2:50pm 8.5ft 15s 10s 4 9 mph 1023.2mb 61f 61f
2:40pm  -   -   -  4 7 mph 1023.3mb 61f 61f
2:30pm  -   -   -  4 4 mph 1023.3mb - 61f
2:20pm  -   -   -  4 7 mph 1023.4mb 61f 61f
2:10pm  -   -   -  4 7 mph 1023.3mb 61f 61f
2:00pm  -   -   -  2 7 mph 1023.3mb 61f 61f
1:50pm 9ft 16s 10s 2 7 mph 1023.3mb 61f 61f
1:40pm  -   -   -  4 7 mph 1023.3mb 61f 61f
1:30pm  -   -   -  4 7 mph 1023.2mb - 61f
1:20pm  -   -   -  4 7 mph 1023.3mb 61f 61f
1:10pm  -   -   -  2 4 mph 1023.4mb 61f 61f
1:00pm  -   -   -  2 4 mph 1023.5mb 61f 61f
12:50pm 9ft 16s 10s 2 7 mph 1023.6mb 61f 61f
12:40pm 9ft  -  10s 2 4 mph 1023.9mb 61f 61f
12:30pm  -   -   -  2 4 mph 1024mb 61f 61f
12:20pm  -   -   -  2 7 mph 1024.1mb 60f 61f
12:10pm  -   -   -  2 4 mph 1024.3mb 60f 61f
12:00pm  -   -   -  2 7 mph 1024.2mb 60f 61f
11:50am 8.5ft 16s 10s 2 7 mph 1024.3mb 60f 60f
11:40am 8.5ft  -  10s 4 7 mph 1024.3mb 60f 60f
11:30am  -   -   -  4 7 mph 1024.4mb 60f 60f
11:20am  -   -   -  7 11 mph 1024.4mb 60f 60f
11:10am  -   -   -  7 9 mph 1024.6mb 60f 60f
11:00am  -   -   -  7 11 mph 1024.7mb - 60f
10:50am 10ft 16s 10s 4 9 mph 1024.7mb 60f 60f
10:40am  -   -   -  4 9 mph 1025.1mb 60f 60f
10:30am  -   -   -  7 11 mph 1025.1mb 60f 60f
10:20am  -   -   -  7 11 mph 1025.2mb 60f 60f
10:10am  -   -   -  7 11 mph 1025mb 60f 60f
10:00am  -   -   -  7 11 mph 1024.9mb 60f 60f
9:50am 8ft 16s 9s 7 9 mph 1024.6mb 60f 60f
9:40am  -   -   -  4 7 mph 1024.6mb 60f 60f
9:30am  -   -   -  4 7 mph 1024.7mb 60f 60f
9:20am  -   -   -  4 7 mph 1024.6mb 60f 60f
9:10am  -   -   -  4 7 mph 1024.5mb 60f 60f
9:00am  -   -   -  4 9 mph 1024.6mb 60f 60f
8:50am 8ft 16s 9s 7 11 mph 1024.5mb 60f 60f
8:40am  -   -   -  4 9 mph 1024.3mb 60f 61f
8:30am  -   -   -  2 4 mph 1024.3mb 60f 60f
8:20am  -   -   -  4 9 mph 1024mb 60f 60f
8:10am  -   -   -  7 11 mph 1023.9mb 60f 60f
8:00am  -   -   -  2 9 mph 1023.7mb 60f 60f
7:50am 9ft 17s 9s 11 13 mph 1023.1mb 60f 59f
7:40am  -   -   -  4 11 mph 1023.2mb 60f 59f
7:30am  -   -   -  4 9 mph 1023.2mb 60f 59f
7:20am  -   -   -  11 18 mph 1023mb 60f 60f
7:10am  -   -   -  16 20 mph 1022.8mb 60f 59f
7:00am  -   -   -  18 22 mph 1022.8mb 60f 59f
6:50am 8.5ft 17s 9s 18 22 mph 1022.8mb 60f 60f
6:40am  -   -   -  16 22 mph 1022.9mb 60f 60f
6:30am  -   -   -  13 18 mph 1022.8mb - 60f
6:20am  -   -   -  9 13 mph 1022.7mb 60f 59f
6:10am  -   -   -  11 16 mph 1022.8mb 60f 59f
6:00am  -   -   -  11 16 mph 1022.7mb - 59f
5:50am 9ft 17s 9s 11 16 mph 1022.5mb 60f 59f
5:40am  -   -   -  9 13 mph 1022.3mb - 59f
5:30am  -   -   -  11 18 mph 1022.2mb 60f 59f
5:20am  -   -   -  13 18 mph 1022mb 60f 60f
5:10am  -   -   -  13 16 mph 1022.2mb 60f 60f
5:00am  -   -   -  9 16 mph 1022.4mb 60f 60f
4:50am 10ft 16s 9s 7 11 mph 1022.2mb - 59f
4:40am  -   -   -  7 9 mph 1022.3mb 60f 59f
4:30am  -   -   -  7 13 mph 1022.6mb - 59f
4:20am  -   -   -  9 13 mph 1022.6mb 60f 59f
4:10am  -   -   -  11 16 mph 1022.5mb 60f 60f
4:00am  -   -   -  13 18 mph 1022.6mb 60f 60f
3:50am 9ft 16s 9s 13 18 mph 1022.4mb 60f 60f
3:40am  -   -   -  16 20 mph 1022.6mb 60f 60f
3:30am  -   -   -  18 25 mph 1022.5mb 60f 60f
3:20am  -   -   -  18 22 mph 1022.4mb 60f 60f
3:10am  -   -   -  18 22 mph 1022.4mb 60f 60f
3:00am  -   -   -  18 25 mph 1022.4mb 60f 60f
2:50am 9ft 17s 9s 18 25 mph 1022.3mb 60f 60f
2:40am  -   -   -  18 25 mph 1022.5mb 60f 60f
2:30am  -   -   -  20 25 mph 1022.2mb 60f 60f
2:20am  -   -   -  20 25 mph 1022.4mb 60f 60f
2:10am  -   -   -  18 25 mph 1022.4mb 60f 60f
2:00am  -   -   -  20 25 mph 1022.2mb 60f 60f
1:50am 8ft 16s 9s 18 22 mph 1022.1mb 60f 59f
1:40am 8ft  -  9s 16 22 mph 1021.9mb 60f 59f
1:30am  -   -   -  18 25 mph 1021.9mb 60f 59f
1:20am  -   -   -  18 22 mph 1021.8mb 60f 59f
1:10am  -   -   -  16 20 mph 1021.7mb 60f 59f
1:00am  -   -   -  16 20 mph 1021.8mb - 59f
12:50am 8.5ft 16s 9s 16 20 mph 1021.9mb 60f 59f
12:40am 8.5ft  -  9s 16 20 mph 1022.1mb 60f 59f
12:30am  -   -   -  16 22 mph 1022.2mb 60f 59f
12:20am  -   -   -  18 22 mph 1022.4mb 60f 59f
12:10am  -   -   -  18 22 mph 1022.5mb 60f 59f
12:00am  -   -   -  18 22 mph 1022.6mb 60f 59f
Thu 01/17 11:50pm 9ft 16s 10s 16 22 mph 1022.5mb 60f 59f
11:40pm  -   -   -  16 22 mph 1022.5mb 60f 59f
11:30pm  -   -   -  13 20 mph 1022.4mb 60f 60f
11:20pm  -   -   -  13 18 mph 1022.7mb 60f 60f
11:10pm  -   -   -  16 20 mph 1022.7mb 60f 60f
11:00pm  -   -   -  16 22 mph 1022.8mb - 60f
10:50pm 8.5ft 16s 10s 16 20 mph 1022.6mb 60f 60f
10:40pm 8.5ft  -  10s 16 20 mph 1022.5mb 60f 60f
10:30pm  -   -   -  13 18 mph 1022.6mb 60f 60f
10:20pm  -   -   -  13 18 mph 1022.7mb 60f 60f
10:10pm  -   -   -  16 20 mph 1022.6mb 60f 60f
10:00pm  -   -   -  16 20 mph 1022.6mb - 60f
9:50pm 10ft 16s 11s 16 22 mph 1022.7mb 60f 60f
9:40pm  -   -   -  13 22 mph 1022.6mb 60f 60f
9:30pm  -   -   -  9 11 mph 1022.7mb 60f 60f
9:20pm  -   -   -  9 11 mph 1022.8mb 60f 60f
9:10pm  -   -   -  7 11 mph 1022.4mb 60f 60f
9:00pm  -   -   -  4 7 mph 1022.4mb 60f 60f
8:50pm 9ft 16s 10s 4 9 mph 1022.6mb 60f 60f
8:40pm  -   -   -  7 11 mph 1022.3mb 60f 60f
8:30pm  -   -   -  9 13 mph 1022.2mb - 60f
8:20pm  -   -   -  9 13 mph 1022.2mb 60f 60f
8:10pm  -   -   -  9 13 mph 1022.2mb 60f 60f
8:00pm  -   -   -  9 13 mph 1022.5mb 60f 60f
7:50pm 7.5ft 19s 9s 11 16 mph 1022.6mb 60f 60f
7:40pm  -   -   -  11 16 mph 1022.2mb 60f 60f
7:30pm  -   -   -  11 13 mph 1022.3mb 60f 60f
7:20pm  -   -   -  7 11 mph 1022.2mb 60f 60f
7:10pm  -   -   -  7 11 mph 1022.2mb 60f 60f
7:00pm  -   -   -  7 11 mph 1022.2mb - 60f
6:50pm 7ft 17s 9s 9 11 mph 1022mb 60f 60f
6:40pm  -   -   -  9 13 mph 1022.1mb 60f 60f
6:30pm  -   -   -  7 11 mph 1021.9mb 60f 60f
6:20pm  -   -   -  7 11 mph 1021.8mb 60f 60f
6:10pm  -   -   -  9 13 mph 1021.5mb 60f 60f
6:00pm  -   -   -  9 13 mph 1021.4mb 60f 60f
5:50pm 7ft 19s 9s 9 13 mph 1021.5mb 60f 60f
5:40pm 7ft  -  9s 9 13 mph 1021.6mb 60f 60f
5:30pm  -   -   -  11 16 mph 1021.6mb 60f 60f
5:20pm  -   -   -  11 16 mph 1021.4mb 60f 60f
5:10pm  -   -   -  11 16 mph 1021.3mb 60f 60f
5:00pm  -   -   -  11 16 mph 1021.3mb 60f 60f
4:50pm 6.5ft 19s 8s 11 16 mph 1021.4mb 60f 60f
4:40pm  -   -   -  9 13 mph 1021.5mb 60f 60f
4:30pm  -   -   -  7 11 mph 1021.2mb 60f 60f
4:20pm  -   -   -  9 11 mph 1021.1mb 60f 60f
4:10pm  -   -   -  7 11 mph 1021.2mb 60f 60f
4:00pm  -   -   -  7 11 mph 1021.2mb - 60f
3:50pm 6.5ft 16s 7s 9 11 mph 1021.2mb 60f 60f
3:40pm  -   -   -  9 13 mph 1021.2mb 60f 60f
3:20pm  -   -   -  7 9 mph 1020.8mb 60f 60f
3:10pm  -   -   -  7 9 mph 1021mb 60f 60f
3:00pm  -   -   -  7 11 mph 1021mb 60f 60f
2:50pm 6.5ft 8s 7s 9 13 mph 1020.9mb 60f 60f
2:40pm 6.5ft  -  7s 9 11 mph 1020.6mb 60f 60f
2:30pm  -   -   -  7 11 mph 1020.5mb 60f 60f
2:20pm  -   -   -  7 11 mph 1020.4mb 60f 60f
2:10pm  -   -   -  7 11 mph 1020.5mb 60f 60f
2:00pm  -   -   -  7 11 mph 1020.4mb 60f 60f